Time;durP1;ratioP1;P1;durP2;ratioP2;P2;SDS_P1;SDS_P2;PMS_P1;PMS_P2;Temp;Humidity;BMP_temperature;BMP_pressure;BME280_temperature;BME280_humidity;BME280_pressure;Samples;Min_cycle;Max_cycle;Signal;HPM_P1;HPM_P2
2023/03/08 00:02:17;;;;;;;;;;;20.40;78.80;;;;;;5076121;28;19908;-56
2023/03/08 00:04:43;;;;;;;;;;;20.40;78.60;;;;;;5075691;28;19919;-54
2023/03/08 00:07:08;;;;;;;;;;;20.40;78.80;;;;;;5075942;28;19930;-55
2023/03/08 00:09:35;;;;;;;;;;;20.40;78.60;;;;;;5075870;28;19908;-51
2023/03/08 00:12:01;;;;;;;;;;;20.40;78.90;;;;;;5075887;28;20009;-52
2023/03/08 00:14:26;;;;;;;;;;;20.40;78.60;;;;;;5075796;28;19916;-53
2023/03/08 00:16:52;;;;;;;;;;;20.50;78.80;;;;;;5075468;28;19915;-51
2023/03/08 00:19:17;;;;;;;;;;;20.40;78.40;;;;;;5057275;28;19908;-55
2023/03/08 00:21:43;;;;;;;;;;;20.40;78.70;;;;;;5075701;28;20321;-50
2023/03/08 00:24:09;;;;;;;;;;;20.50;78.70;;;;;;5075650;28;19999;-51
2023/03/08 00:26:35;;;;;;;;;;;20.50;78.70;;;;;;5075784;28;19916;-52
2023/03/08 00:29:00;;;;;;;;;;;20.50;78.60;;;;;;5075569;28;19962;-53
2023/03/08 00:31:26;;;;;;;;;;;20.50;78.60;;;;;;5075411;28;19908;-56
2023/03/08 00:33:52;;;;;;;;;;;20.50;78.70;;;;;;5075299;28;19954;-53
2023/03/08 00:36:18;;;;;;;;;;;20.50;78.50;;;;;;5074998;28;20311;-55
2023/03/08 00:38:44;;;;;;;;;;;20.50;78.30;;;;;;5075029;28;19947;-54
2023/03/08 00:41:10;;;;;;;;;;;20.50;78.50;;;;;;5075456;28;19921;-54
2023/03/08 00:43:36;;;;;;;;;;;20.50;78.80;;;;;;5074927;28;19916;-55
2023/03/08 00:46:01;;;;;;;;;;;20.50;78.50;;;;;;5056942;28;19909;-52
2023/03/08 00:48:27;;;;;;;;;;;20.40;78.50;;;;;;5057143;28;19916;-52
2023/03/08 00:50:52;;;;;;;;;;;20.40;78.00;;;;;;5075402;28;19962;-52
2023/03/08 00:53:18;;;;;;;;;;;20.40;78.20;;;;;;5073295;28;19931;-55
2023/03/08 00:55:51;;;;;;;;;;;20.50;78.30;;;;;;5074688;28;19924;-53
2023/03/08 00:58:17;;;;;;;;;;;20.40;78.40;;;;;;5074910;28;19908;-53
2023/03/08 01:00:43;;;;;;;;;;;20.50;78.70;;;;;;5074448;28;19915;-56
2023/03/08 01:03:08;;;;;;;;;;;20.50;78.70;;;;;;5074910;28;19919;-54
2023/03/08 01:05:44;;;;;;;;;;;20.40;78.60;;;;;;5074511;28;19916;-55
2023/03/08 01:08:10;;;;;;;;;;;20.50;78.80;;;;;;5074686;28;19970;-55
2023/03/08 01:10:35;;;;;;;;;;;20.50;78.70;;;;;;5074460;28;19909;-55
2023/03/08 01:13:01;;;;;;;;;;;20.50;78.80;;;;;;5074360;28;19909;-51
2023/03/08 01:15:27;;;;;;;;;;;20.40;78.90;;;;;;5074630;28;20252;-52
2023/03/08 01:17:52;;;;;;;;;;;20.50;78.80;;;;;;5074609;28;19916;-50
2023/03/08 01:20:18;;;;;;;;;;;20.50;78.90;;;;;;5074228;28;19951;-53
2023/03/08 01:22:43;;;;;;;;;;;20.50;78.30;;;;;;5074454;28;19912;-56
2023/03/08 01:25:09;;;;;;;;;;;20.50;79.00;;;;;;5074496;28;19908;-54
2023/03/08 01:27:35;;;;;;;;;;;20.50;78.50;;;;;;5074267;28;20351;-55
2023/03/08 01:30:00;;;;;;;;;;;20.50;78.90;;;;;;5074328;28;19948;-55
2023/03/08 01:32:25;;;;;;;;;;;20.50;78.80;;;;;;5073907;28;19908;-55
2023/03/08 01:34:51;;;;;;;;;;;20.50;79.00;;;;;;5074329;28;19908;-52
2023/03/08 01:37:17;;;;;;;;;;;20.50;79.20;;;;;;5074602;28;19972;-54
2023/03/08 01:39:42;;;;;;;;;;;20.50;78.80;;;;;;5073930;28;19962;-55
2023/03/08 01:42:07;;;;;;;;;;;20.60;78.90;;;;;;5073974;28;19908;-51
2023/03/08 01:44:53;;;;;;;;;;;20.50;79.00;;;;;;5077846;28;20035;-54
2023/03/08 01:47:19;;;;;;;;;;;20.50;78.60;;;;;;5079889;28;20359;-55
2023/03/08 01:49:45;;;;;;;;;;;20.50;78.70;;;;;;5074609;28;19915;-53
2023/03/08 01:52:13;;;;;;;;;;;20.50;79.20;;;;;;5094242;28;20347;-52
2023/03/08 01:54:42;;;;;;;;;;;20.50;78.80;;;;;;5088857;28;19909;-53
2023/03/08 01:57:14;;;;;;;;;;;20.50;78.80;;;;;;5067620;28;19913;-52
2023/03/08 01:59:40;;;;;;;;;;;20.50;78.70;;;;;;5067307;28;19908;-54
2023/03/08 02:02:05;;;;;;;;;;;20.50;79.00;;;;;;5073731;28;19915;-52
2023/03/08 02:04:31;;;;;;;;;;;20.50;78.90;;;;;;5074257;28;19916;-52
2023/03/08 02:06:56;;;;;;;;;;;20.50;78.80;;;;;;5073665;28;19916;-52
2023/03/08 02:09:22;;;;;;;;;;;20.40;78.90;;;;;;5074350;28;20275;-53
2023/03/08 02:11:48;;;;;;;;;;;20.50;78.90;;;;;;5073658;28;20038;-52
2023/03/08 02:14:13;;;;;;;;;;;20.50;78.90;;;;;;5074284;28;19919;-54
2023/03/08 02:16:39;;;;;;;;;;;20.50;78.70;;;;;;5073674;28;19913;-54
2023/03/08 02:19:09;;;;;;;;;;;20.50;79.00;;;;;;5073866;28;19909;-53
2023/03/08 02:21:35;;;;;;;;;;;20.50;78.80;;;;;;5073621;28;19908;-53
2023/03/08 02:24:16;;;;;;;;;;;20.50;78.90;;;;;;5073782;28;20352;-55
2023/03/08 02:26:42;;;;;;;;;;;20.50;78.70;;;;;;5073511;28;19917;-51
2023/03/08 02:29:07;;;;;;;;;;;20.50;78.60;;;;;;5073474;28;20019;-54
2023/03/08 02:31:33;;;;;;;;;;;20.50;78.50;;;;;;5073789;28;19912;-51
2023/03/08 02:33:58;;;;;;;;;;;20.50;78.70;;;;;;5073882;28;19915;-54
2023/03/08 02:36:24;;;;;;;;;;;20.50;78.50;;;;;;5071013;28;20295;-55
2023/03/08 02:38:49;;;;;;;;;;;20.50;78.70;;;;;;5072439;28;19912;-54
2023/03/08 02:41:15;;;;;;;;;;;20.60;78.50;;;;;;5069737;28;19916;-53
2023/03/08 02:43:40;;;;;;;;;;;20.50;78.70;;;;;;5073738;28;19919;-55
2023/03/08 02:46:05;;;;;;;;;;;20.50;78.70;;;;;;5076249;28;19912;-54
2023/03/08 02:48:31;;;;;;;;;;;20.50;78.60;;;;;;5072709;28;19927;-53
2023/03/08 02:50:56;;;;;;;;;;;20.50;78.70;;;;;;5067879;28;19916;-54
2023/03/08 02:53:22;;;;;;;;;;;20.50;78.50;;;;;;5077388;28;19922;-53
2023/03/08 02:55:47;;;;;;;;;;;20.50;78.50;;;;;;5076990;28;19960;-54
2023/03/08 02:58:13;;;;;;;;;;;20.50;78.40;;;;;;5077217;28;19966;-51
2023/03/08 03:00:38;;;;;;;;;;;20.50;78.60;;;;;;5074841;28;20342;-53
2023/03/08 03:03:04;;;;;;;;;;;20.50;78.60;;;;;;5070307;28;19908;-51
2023/03/08 03:05:29;;;;;;;;;;;20.50;78.60;;;;;;5076516;28;19916;-56
2023/03/08 03:07:57;;;;;;;;;;;20.50;78.50;;;;;;5068509;28;21591;-52
2023/03/08 03:10:22;;;;;;;;;;;20.50;78.50;;;;;;5065363;28;19908;-55
2023/03/08 03:12:48;;;;;;;;;;;20.50;78.70;;;;;;5077023;28;20004;-54
2023/03/08 03:15:13;;;;;;;;;;;20.40;78.60;;;;;;5076931;28;19912;-54
2023/03/08 03:17:39;;;;;;;;;;;20.50;78.80;;;;;;5059073;28;19959;-54
2023/03/08 03:20:07;;;;;;;;;;;20.50;78.70;;;;;;5076897;28;19962;-54
2023/03/08 03:22:33;;;;;;;;;;;20.50;78.70;;;;;;5076580;28;20271;-54
2023/03/08 03:24:58;;;;;;;;;;;20.50;78.50;;;;;;5076618;28;19915;-52
2023/03/08 03:27:24;;;;;;;;;;;20.50;78.40;;;;;;5068735;28;19939;-54
2023/03/08 03:29:49;;;;;;;;;;;20.50;78.40;;;;;;5076722;28;19915;-55
2023/03/08 03:32:15;;;;;;;;;;;20.50;78.40;;;;;;5076647;28;19954;-56
2023/03/08 03:34:40;;;;;;;;;;;20.50;78.50;;;;;;5076949;28;20254;-55
2023/03/08 03:37:06;;;;;;;;;;;20.50;78.40;;;;;;5076291;28;19943;-54
2023/03/08 03:39:35;;;;;;;;;;;20.50;78.60;;;;;;5076188;28;20341;-56
2023/03/08 03:42:00;;;;;;;;;;;20.50;78.70;;;;;;5074683;28;19939;-54
2023/03/08 03:44:27;;;;;;;;;;;20.50;78.70;;;;;;5058176;28;19916;-54
2023/03/08 03:46:53;;;;;;;;;;;20.50;78.60;;;;;;5058170;28;20410;-53
2023/03/08 03:49:18;;;;;;;;;;;20.50;78.60;;;;;;5073949;28;19913;-53
2023/03/08 03:51:44;;;;;;;;;;;20.50;78.70;;;;;;5073329;28;20374;-54
2023/03/08 03:54:09;;;;;;;;;;;20.50;78.80;;;;;;5071828;28;19913;-55
2023/03/08 03:56:35;;;;;;;;;;;20.50;78.80;;;;;;5073815;28;19912;-52
2023/03/08 03:59:00;;;;;;;;;;;20.50;78.80;;;;;;5073013;28;19909;-50
2023/03/08 04:01:27;;;;;;;;;;;20.50;78.70;;;;;;5074782;28;19912;-54
2023/03/08 04:03:53;;;;;;;;;;;20.50;78.80;;;;;;5068137;28;19974;-52
2023/03/08 04:06:20;;;;;;;;;;;20.50;78.80;;;;;;5070019;28;19908;-54
2023/03/08 04:08:46;;;;;;;;;;;20.50;78.90;;;;;;5075855;28;19912;-56
2023/03/08 04:11:13;;;;;;;;;;;20.40;78.90;;;;;;5075567;28;19915;-54
2023/03/08 04:13:38;;;;;;;;;;;20.40;78.80;;;;;;5075490;28;19914;-54
2023/03/08 04:16:36;;;;;;;;;;;20.40;79.00;;;;;;5057615;28;20329;-52
2023/03/08 04:19:03;;;;;;;;;;;20.40;78.80;;;;;;5041630;28;19908;-51
2023/03/08 04:21:29;;;;;;;;;;;20.40;78.90;;;;;;5075307;28;20414;-54
2023/03/08 04:23:55;;;;;;;;;;;20.40;79.10;;;;;;5075663;28;19936;-54
2023/03/08 04:26:20;;;;;;;;;;;20.40;79.00;;;;;;5074573;28;19991;-53
2023/03/08 04:28:46;;;;;;;;;;;20.40;78.80;;;;;;5075212;28;19908;-51
2023/03/08 04:31:16;;;;;;;;;;;20.40;78.70;;;;;;5072549;28;19979;-54
2023/03/08 04:33:41;;;;;;;;;;;20.50;78.90;;;;;;5074284;28;19912;-54
2023/03/08 04:36:07;;;;;;;;;;;20.40;78.80;;;;;;5073439;28;20343;-53
2023/03/08 04:38:33;;;;;;;;;;;20.50;79.00;;;;;;5037498;28;20285;-54
2023/03/08 04:41:04;;;;;;;;;;;20.50;79.00;;;;;;5055508;28;20402;-54
2023/03/08 04:43:32;;;;;;;;;;;20.50;78.80;;;;;;5073416;28;20337;-55
2023/03/08 04:45:58;;;;;;;;;;;20.50;78.70;;;;;;5057260;28;19934;-51
2023/03/08 04:48:24;;;;;;;;;;;20.50;79.10;;;;;;5052761;28;19924;-51
2023/03/08 04:50:53;;;;;;;;;;;20.40;79.20;;;;;;5074815;28;19995;-51
2023/03/08 04:53:18;;;;;;;;;;;20.40;79.10;;;;;;5069682;28;19965;-50
2023/03/08 04:55:44;;;;;;;;;;;20.50;79.00;;;;;;5063470;28;19983;-51
2023/03/08 04:58:09;;;;;;;;;;;20.50;79.00;;;;;;5074674;28;19951;-52
2023/03/08 05:00:35;;;;;;;;;;;20.50;78.80;;;;;;5071950;28;20371;-53
2023/03/08 05:03:00;;;;;;;;;;;20.50;78.80;;;;;;5072118;28;19916;-55
2023/03/08 05:05:25;;;;;;;;;;;20.50;78.60;;;;;;5070953;28;19920;-52
2023/03/08 05:07:52;;;;;;;;;;;20.50;79.00;;;;;;5058336;28;19935;-54
2023/03/08 05:10:17;;;;;;;;;;;20.50;78.90;;;;;;5053123;28;19909;-52
2023/03/08 05:12:43;;;;;;;;;;;20.50;78.90;;;;;;5054713;28;19967;-52
2023/03/08 05:15:09;;;;;;;;;;;20.60;78.90;;;;;;5054571;28;20276;-54
2023/03/08 05:17:34;;;;;;;;;;;20.50;79.10;;;;;;5054346;28;19963;-53
2023/03/08 05:20:00;;;;;;;;;;;20.50;79.10;;;;;;5054837;28;20295;-52
2023/03/08 05:22:25;;;;;;;;;;;20.60;78.70;;;;;;5054154;28;20351;-53
2023/03/08 05:24:51;;;;;;;;;;;20.60;77.80;;;;;;5036486;28;19913;-50
2023/03/08 05:27:17;;;;;;;;;;;20.60;79.70;;;;;;5036481;28;19986;-54
2023/03/08 05:29:42;;;;;;;;;;;20.60;78.00;;;;;;5054099;28;19996;-50
2023/03/08 05:32:11;;;;;;;;;;;20.60;78.80;;;;;;5054228;28;20356;-53
2023/03/08 05:34:36;;;;;;;;;;;20.60;78.80;;;;;;5053592;28;19956;-54
2023/03/08 05:37:02;;;;;;;;;;;20.60;78.80;;;;;;5053761;28;19908;-53
2023/03/08 05:39:29;;;;;;;;;;;20.60;78.90;;;;;;5054223;28;20010;-52
2023/03/08 05:41:54;;;;;;;;;;;20.60;78.80;;;;;;5053854;28;20394;-54
2023/03/08 05:44:20;;;;;;;;;;;20.60;78.80;;;;;;5054024;28;19975;-50
2023/03/08 05:46:48;;;;;;;;;;;20.60;78.70;;;;;;5053706;28;19917;-52
2023/03/08 05:49:13;;;;;;;;;;;20.50;78.80;;;;;;5053826;28;19916;-52
2023/03/08 05:51:39;;;;;;;;;;;20.50;78.90;;;;;;5053722;28;20429;-53
2023/03/08 05:54:04;;;;;;;;;;;20.50;78.70;;;;;;5053673;28;19916;-49
2023/03/08 05:56:30;;;;;;;;;;;20.40;78.90;;;;;;5053792;28;20018;-50
2023/03/08 05:58:55;;;;;;;;;;;20.40;79.10;;;;;;5035991;28;20403;-52
2023/03/08 06:01:22;;;;;;;;;;;20.30;79.00;;;;;;5053490;28;19909;-51
2023/03/08 06:03:48;;;;;;;;;;;20.30;79.10;;;;;;5053728;28;19909;-54
2023/03/08 06:06:14;;;;;;;;;;;20.30;79.20;;;;;;5035889;28;19920;-51
2023/03/08 06:08:40;;;;;;;;;;;20.30;79.70;;;;;;5053672;28;19917;-55
2023/03/08 06:11:05;;;;;;;;;;;20.30;79.30;;;;;;5053768;28;19909;-55
2023/03/08 06:13:31;;;;;;;;;;;20.30;79.30;;;;;;5053726;28;19931;-52
2023/03/08 06:15:57;;;;;;;;;;;20.30;79.20;;;;;;5053794;28;20271;-52
2023/03/08 06:18:23;;;;;;;;;;;20.30;79.00;;;;;;5056463;28;20209;-53
2023/03/08 06:21:02;;;;;;;;;;;20.30;78.80;;;;;;5039659;28;19958;-51
2023/03/08 06:23:29;;;;;;;;;;;20.30;78.20;;;;;;5057700;28;19931;-53
2023/03/08 06:25:54;;;;;;;;;;;20.40;77.80;;;;;;5057503;28;19920;-49
2023/03/08 06:28:20;;;;;;;;;;;20.30;77.10;;;;;;5057330;28;19916;-53
2023/03/08 06:30:49;;;;;;;;;;;20.40;77.10;;;;;;5057654;28;19955;-52
2023/03/08 06:33:15;;;;;;;;;;;20.40;77.50;;;;;;5057847;28;19919;-54
2023/03/08 06:35:41;;;;;;;;;;;20.50;77.80;;;;;;5057375;28;20336;-52
2023/03/08 06:38:06;;;;;;;;;;;20.50;78.50;;;;;;5057443;28;20004;-50
2023/03/08 06:40:32;;;;;;;;;;;20.60;78.40;;;;;;5068474;28;20019;-53
2023/03/08 06:42:57;;;;;;;;;;;20.60;78.30;;;;;;5081115;28;20360;-54
2023/03/08 06:45:23;;;;;;;;;;;20.60;78.40;;;;;;5077085;28;19969;-53
2023/03/08 06:47:48;;;;;;;;;;;20.60;78.20;;;;;;5074799;28;19927;-54
2023/03/08 06:50:14;;;;;;;;;;;20.60;77.80;;;;;;5085820;28;20385;-55
2023/03/08 06:52:39;;;;;;;;;;;20.60;78.60;;;;;;5081198;28;19934;-63
2023/03/08 06:55:05;;;;;;;;;;;20.60;78.70;;;;;;5078731;28;20348;-64
2023/03/08 06:57:31;;;;;;;;;;;20.60;78.80;;;;;;5086236;28;19949;-62
2023/03/08 06:59:56;;;;;;;;;;;20.60;78.90;;;;;;5079188;28;19908;-61
2023/03/08 07:02:21;;;;;;;;;;;20.60;79.00;;;;;;5097397;28;20321;-61
2023/03/08 07:04:47;;;;;;;;;;;20.50;79.10;;;;;;5096855;28;19934;-62
2023/03/08 07:07:12;;;;;;;;;;;20.50;79.40;;;;;;5074273;28;20007;-63
2023/03/08 07:09:38;;;;;;;;;;;20.50;79.40;;;;;;5076612;28;19908;-62
2023/03/08 07:12:03;;;;;;;;;;;20.50;79.50;;;;;;5076592;28;20003;-61
2023/03/08 07:14:29;;;;;;;;;;;20.50;79.40;;;;;;5075529;28;19913;-61
2023/03/08 07:16:54;;;;;;;;;;;20.40;79.50;;;;;;5076966;28;19909;-61
2023/03/08 07:19:20;;;;;;;;;;;20.40;79.50;;;;;;5076243;28;19908;-61
2023/03/08 07:21:45;;;;;;;;;;;20.40;79.50;;;;;;5074685;28;19912;-55
2023/03/08 07:24:11;;;;;;;;;;;20.40;79.50;;;;;;5094777;28;20305;-55
2023/03/08 07:26:36;;;;;;;;;;;20.40;79.60;;;;;;5055852;28;19913;-58
2023/03/08 07:29:02;;;;;;;;;;;20.50;79.50;;;;;;5075182;28;19936;-57
2023/03/08 07:31:34;;;;;;;;;;;20.40;79.50;;;;;;5075342;28;19920;-60
2023/03/08 07:34:01;;;;;;;;;;;20.50;79.50;;;;;;5058608;28;20054;-59
2023/03/08 07:36:26;;;;;;;;;;;20.40;80.00;;;;;;5073352;28;19917;-59
2023/03/08 07:38:51;;;;;;;;;;;20.40;79.40;;;;;;5076139;28;20340;-61
2023/03/08 07:41:17;;;;;;;;;;;20.40;79.30;;;;;;5058231;28;19935;-60
2023/03/08 07:43:42;;;;;;;;;;;20.50;79.40;;;;;;5074889;28;19912;-57
2023/03/08 07:46:08;;;;;;;;;;;20.50;79.40;;;;;;5057616;28;19912;-52
2023/03/08 07:48:33;;;;;;;;;;;20.50;79.60;;;;;;5057899;28;19920;-59
2023/03/08 07:51:01;;;;;;;;;;;20.50;79.60;;;;;;5074536;28;19913;-60
2023/03/08 07:53:27;;;;;;;;;;;20.50;79.60;;;;;;5057617;28;19948;-55
2023/03/08 07:55:52;;;;;;;;;;;20.60;79.60;;;;;;5076066;28;20356;-60
2023/03/08 07:58:18;;;;;;;;;;;20.60;79.60;;;;;;5088838;28;19970;-59
2023/03/08 08:00:43;;;;;;;;;;;20.60;79.50;;;;;;5074649;28;19916;-61
2023/03/08 08:03:09;;;;;;;;;;;20.60;79.30;;;;;;5056208;28;19966;-58
2023/03/08 08:05:35;;;;;;;;;;;20.60;79.50;;;;;;5057881;28;19908;-62
2023/03/08 08:08:00;;;;;;;;;;;20.60;79.30;;;;;;5074549;28;19920;-58
2023/03/08 08:10:26;;;;;;;;;;;20.70;79.50;;;;;;5073349;28;19951;-57
2023/03/08 08:12:51;;;;;;;;;;;20.60;79.60;;;;;;5074631;28;20224;-57
2023/03/08 08:15:18;;;;;;;;;;;20.60;79.60;;;;;;5072846;28;19966;-59
2023/03/08 08:17:43;;;;;;;;;;;20.70;79.70;;;;;;5056623;28;19999;-54
2023/03/08 08:20:09;;;;;;;;;;;20.60;79.70;;;;;;5059933;28;20358;-59
2023/03/08 08:22:35;;;;;;;;;;;20.60;79.50;;;;;;5073763;28;19963;-57
2023/03/08 08:25:02;;;;;;;;;;;20.60;79.60;;;;;;5057167;28;19913;-59
2023/03/08 08:27:27;;;;;;;;;;;20.70;79.60;;;;;;5056074;28;19939;-59
2023/03/08 08:29:52;;;;;;;;;;;20.60;79.60;;;;;;5071590;28;19916;-58
2023/03/08 08:32:18;;;;;;;;;;;20.70;79.60;;;;;;5075093;28;19909;-58
2023/03/08 08:34:43;;;;;;;;;;;20.70;79.70;;;;;;5073073;28;19924;-58
2023/03/08 08:37:09;;;;;;;;;;;20.60;79.70;;;;;;5073773;28;20232;-56
2023/03/08 08:39:34;;;;;;;;;;;20.60;79.60;;;;;;5072644;28;19928;-57
2023/03/08 08:42:00;;;;;;;;;;;20.60;79.70;;;;;;5071735;28;20001;-58
2023/03/08 08:44:25;;;;;;;;;;;20.60;79.80;;;;;;5073728;28;19912;-55
2023/03/08 08:46:51;;;;;;;;;;;20.60;79.90;;;;;;5070445;28;19928;-55
2023/03/08 08:49:16;;;;;;;;;;;20.70;80.30;;;;;;5073715;28;20347;-57
2023/03/08 08:51:42;;;;;;;;;;;20.70;79.90;;;;;;5071755;28;19912;-60
2023/03/08 08:54:07;;;;;;;;;;;20.70;80.10;;;;;;5074813;28;19915;-59
2023/03/08 08:56:33;;;;;;;;;;;20.70;80.00;;;;;;5074058;28;19916;-59
2023/03/08 08:58:59;;;;;;;;;;;20.60;79.70;;;;;;5074522;28;19993;-56
2023/03/08 09:01:27;;;;;;;;;;;20.70;80.20;;;;;;5056576;28;21814;-62
2023/03/08 09:03:52;;;;;;;;;;;20.70;80.00;;;;;;5055471;28;19917;-62
2023/03/08 09:06:19;;;;;;;;;;;20.60;80.10;;;;;;5070799;28;20007;-62
2023/03/08 09:08:47;;;;;;;;;;;20.60;80.20;;;;;;5073293;28;19924;-63
2023/03/08 09:11:12;;;;;;;;;;;20.60;80.30;;;;;;5074795;28;19950;-62
2023/03/08 09:13:40;;;;;;;;;;;20.60;80.40;;;;;;5055677;28;19912;-63
2023/03/08 09:16:06;;;;;;;;;;;20.50;80.50;;;;;;5056628;28;20110;-63
2023/03/08 09:18:31;;;;;;;;;;;20.50;80.60;;;;;;5073328;28;20026;-63
2023/03/08 09:20:59;;;;;;;;;;;20.50;80.60;;;;;;5054255;28;19944;-63
2023/03/08 09:23:25;;;;;;;;;;;20.50;80.80;;;;;;5069890;28;20406;-63
2023/03/08 09:25:54;;;;;;;;;;;20.50;80.90;;;;;;5072415;28;19956;-61
2023/03/08 09:28:19;;;;;;;;;;;20.40;81.00;;;;;;5071318;28;22238;-57
2023/03/08 09:30:45;;;;;;;;;;;20.40;81.10;;;;;;5072017;28;19922;-62
2023/03/08 09:33:10;;;;;;;;;;;20.40;81.30;;;;;;5072915;28;19908;-61
2023/03/08 09:35:36;;;;;;;;;;;20.30;81.10;;;;;;5071502;28;19913;-59
2023/03/08 09:38:01;;;;;;;;;;;20.30;81.50;;;;;;5056267;28;19908;-61
2023/03/08 09:40:28;;;;;;;;;;;20.30;81.70;;;;;;5072286;28;20264;-62
2023/03/08 09:42:58;;;;;;;;;;;20.20;81.80;;;;;;5070821;28;19962;-61
2023/03/08 09:45:27;;;;;;;;;;;20.20;81.80;;;;;;5068635;28;19951;-59
2023/03/08 09:48:03;;;;;;;;;;;20.20;81.80;;;;;;5065220;28;19963;-57
2023/03/08 09:50:31;;;;;;;;;;;20.20;81.90;;;;;;5069610;28;20390;-54
2023/03/08 09:52:59;;;;;;;;;;;20.30;81.70;;;;;;5072902;28;20336;-59
2023/03/08 09:55:30;;;;;;;;;;;20.30;81.70;;;;;;5071503;28;20011;-54
2023/03/08 09:57:59;;;;;;;;;;;20.30;81.60;;;;;;5086758;28;19912;-58
2023/03/08 10:00:27;;;;;;;;;;;20.30;81.50;;;;;;5077205;28;20015;-57
2023/03/08 10:03:02;;;;;;;;;;;20.40;81.30;;;;;;5073526;28;20378;-54
2023/03/08 10:05:51;;;;;;;;;;;20.40;81.40;;;;;;5054117;28;20042;-55
2023/03/08 10:08:22;;;;;;;;;;;20.50;81.20;;;;;;5009679;28;19943;-56
2023/03/08 10:11:12;;;;;;;;;;;20.60;81.20;;;;;;5070266;28;19965;-56
2023/03/08 10:13:41;;;;;;;;;;;20.60;81.20;;;;;;5072168;28;20363;-52
2023/03/08 10:16:15;;;;;;;;;;;20.60;80.80;;;;;;5073652;28;19960;-53
2023/03/08 10:19:19;;;;;;;;;;;20.70;80.90;;;;;;5054778;28;19916;-56
2023/03/08 10:21:45;;;;;;;;;;;20.70;80.80;;;;;;4971065;28;20001;-61
2023/03/08 10:24:16;;;;;;;;;;;20.70;80.90;;;;;;4971573;28;20390;-62
2023/03/08 10:26:42;;;;;;;;;;;20.70;80.70;;;;;;5023419;28;19977;-59
2023/03/08 10:29:11;;;;;;;;;;;20.70;80.50;;;;;;5054413;28;20263;-58
2023/03/08 10:31:37;;;;;;;;;;;20.70;80.70;;;;;;5072737;28;19912;-55
2023/03/08 10:34:09;;;;;;;;;;;20.80;80.60;;;;;;5052127;28;19999;-57
2023/03/08 10:36:45;;;;;;;;;;;20.80;80.60;;;;;;5069694;28;20367;-56
2023/03/08 10:39:11;;;;;;;;;;;20.80;80.50;;;;;;5072462;28;19921;-57
2023/03/08 10:41:41;;;;;;;;;;;20.80;80.40;;;;;;5067336;28;19912;-56
2023/03/08 10:44:11;;;;;;;;;;;20.70;80.70;;;;;;5062742;28;19920;-60
2023/03/08 10:46:44;;;;;;;;;;;20.70;80.40;;;;;;5067340;28;19912;-59
2023/03/08 10:49:15;;;;;;;;;;;20.70;80.40;;;;;;5046334;28;19948;-57
2023/03/08 10:51:50;;;;;;;;;;;20.70;80.60;;;;;;5052553;28;19913;-57
2023/03/08 10:54:15;;;;;;;;;;;20.60;80.60;;;;;;5071083;28;19928;-58
2023/03/08 10:56:49;;;;;;;;;;;20.60;80.60;;;;;;5071469;28;19928;-56
2023/03/08 10:59:18;;;;;;;;;;;20.60;80.70;;;;;;5064274;28;19913;-55
2023/03/08 11:01:51;;;;;;;;;;;20.60;80.60;;;;;;5071336;28;19912;-58
2023/03/08 11:04:18;;;;;;;;;;;20.60;80.70;;;;;;5058059;28;20035;-54
2023/03/08 11:06:43;;;;;;;;;;;20.60;80.60;;;;;;5075625;28;20411;-57
2023/03/08 11:09:21;;;;;;;;;;;20.60;80.60;;;;;;5076623;28;20059;-56
2023/03/08 11:11:46;;;;;;;;;;;20.60;80.70;;;;;;5058311;28;19967;-57
2023/03/08 11:14:13;;;;;;;;;;;20.60;80.80;;;;;;5076962;28;20392;-58
2023/03/08 11:16:38;;;;;;;;;;;20.60;80.80;;;;;;5073939;28;19912;-55
2023/03/08 11:19:23;;;;;;;;;;;20.60;80.70;;;;;;5071326;28;19919;-56
2023/03/08 11:21:53;;;;;;;;;;;20.60;80.50;;;;;;5066999;28;19912;-56
2023/03/08 11:24:26;;;;;;;;;;;20.60;80.40;;;;;;5056471;28;19913;-56
2023/03/08 11:27:04;;;;;;;;;;;20.60;80.20;;;;;;5075967;28;19913;-55
2023/03/08 11:29:34;;;;;;;;;;;20.60;80.40;;;;;;5072074;28;19912;-57
2023/03/08 11:32:06;;;;;;;;;;;20.70;80.30;;;;;;5058688;28;19908;-53
2023/03/08 11:34:51;;;;;;;;;;;20.60;80.50;;;;;;5075368;28;19913;-58
2023/03/08 11:37:28;;;;;;;;;;;20.60;80.80;;;;;;5074739;28;19999;-56
2023/03/08 11:40:01;;;;;;;;;;;20.60;80.90;;;;;;5076149;28;19920;-57
2023/03/08 11:42:32;;;;;;;;;;;20.60;80.80;;;;;;5055047;28;19916;-55
2023/03/08 11:45:05;;;;;;;;;;;20.60;80.70;;;;;;5058268;28;19913;-54
2023/03/08 11:47:37;;;;;;;;;;;20.70;80.70;;;;;;5057003;28;19922;-55
2023/03/08 11:50:11;;;;;;;;;;;20.70;80.90;;;;;;5073977;28;19917;-57
2023/03/08 11:52:57;;;;;;;;;;;20.60;80.70;;;;;;5072417;28;19913;-56
2023/03/08 11:55:38;;;;;;;;;;;20.60;80.70;;;;;;5054332;28;20283;-54
2023/03/08 11:58:10;;;;;;;;;;;20.70;80.80;;;;;;5088080;28;21078;-57
2023/03/08 12:00:37;;;;;;;;;;;20.70;80.70;;;;;;5075665;28;19955;-57
2023/03/08 12:03:07;;;;;;;;;;;20.70;80.70;;;;;;5056993;28;19920;-56
2023/03/08 12:05:37;;;;;;;;;;;20.70;80.70;;;;;;5075932;28;19916;-56
2023/03/08 12:08:12;;;;;;;;;;;20.70;80.70;;;;;;5056617;28;20283;-58
2023/03/08 12:10:51;;;;;;;;;;;20.70;80.60;;;;;;5074143;28;20413;-57
2023/03/08 12:13:23;;;;;;;;;;;20.70;80.60;;;;;;5074843;28;19955;-57
2023/03/08 12:15:58;;;;;;;;;;;20.70;80.70;;;;;;5071514;28;19919;-56
2023/03/08 12:18:30;;;;;;;;;;;20.60;76.00;;;;;;5043865;28;19912;-58
2023/03/08 12:21:06;;;;;;;;;;;20.60;79.60;;;;;;5054723;28;20292;-57
2023/03/08 12:23:50;;;;;;;;;;;20.70;79.80;;;;;;5036447;28;19913;-53
2023/03/08 12:26:24;;;;;;;;;;;20.70;79.80;;;;;;5054185;28;19916;-50
2023/03/08 12:28:53;;;;;;;;;;;20.70;79.80;;;;;;5053948;28;20020;-53
2023/03/08 12:31:18;;;;;;;;;;;20.80;79.70;;;;;;5036070;28;20225;-51
2023/03/08 12:33:47;;;;;;;;;;;20.80;79.80;;;;;;5054346;28;19920;-52
2023/03/08 12:36:13;;;;;;;;;;;20.70;79.60;;;;;;5055033;28;19909;-52
2023/03/08 12:38:41;;;;;;;;;;;20.80;79.50;;;;;;5055179;28;19916;-53
2023/03/08 12:41:27;;;;;;;;;;;20.80;79.60;;;;;;5037118;28;20375;-55
2023/03/08 12:43:59;;;;;;;;;;;20.70;79.40;;;;;;5055226;28;20260;-52
2023/03/08 12:46:25;;;;;;;;;;;20.70;79.90;;;;;;5036914;28;20007;-53
2023/03/08 12:48:51;;;;;;;;;;;20.70;79.40;;;;;;5055017;28;20062;-51
2023/03/08 12:51:22;;;;;;;;;;;20.70;79.30;;;;;;5055067;28;19943;-54
2023/03/08 12:53:51;;;;;;;;;;;20.70;79.30;;;;;;5055158;28;19909;-53
2023/03/08 12:56:28;;;;;;;;;;;20.70;79.30;;;;;;5039154;28;20256;-50
2023/03/08 12:59:02;;;;;;;;;;;20.70;79.20;;;;;;5094787;28;20271;-53
2023/03/08 13:01:39;;;;;;;;;;;20.70;79.40;;;;;;5094999;28;19915;-52
2023/03/08 13:04:06;;;;;;;;;;;20.70;79.50;;;;;;5094911;28;19916;-52
2023/03/08 13:06:42;;;;;;;;;;;20.70;79.40;;;;;;5094504;28;19912;-54
2023/03/08 13:09:16;;;;;;;;;;;20.70;79.30;;;;;;5094576;28;20314;-51
2023/03/08 13:11:44;;;;;;;;;;;20.70;80.00;;;;;;5076713;28;19916;-51
2023/03/08 13:14:23;;;;;;;;;;;20.60;79.30;;;;;;5094827;28;19908;-53
2023/03/08 13:16:49;;;;;;;;;;;20.60;79.20;;;;;;5094465;28;19953;-53
2023/03/08 13:19:15;;;;;;;;;;;20.60;79.10;;;;;;5064170;28;19912;-54
2023/03/08 13:21:49;;;;;;;;;;;20.60;78.90;;;;;;5079111;28;19981;-56
2023/03/08 13:24:29;;;;;;;;;;;20.60;79.60;;;;;;5078316;28;19916;-58
2023/03/08 13:27:14;;;;;;;;;;;20.70;79.50;;;;;;5069478;28;19916;-57
2023/03/08 13:29:40;;;;;;;;;;;20.70;79.10;;;;;;5056107;28;19908;-57
2023/03/08 13:32:14;;;;;;;;;;;20.70;79.00;;;;;;5074710;28;19912;-59
2023/03/08 13:34:40;;;;;;;;;;;20.70;79.00;;;;;;5079643;28;20019;-57
2023/03/08 13:37:18;;;;;;;;;;;20.70;79.20;;;;;;5071546;28;19931;-58
2023/03/08 13:39:50;;;;;;;;;;;20.70;79.20;;;;;;5054264;28;19924;-57
2023/03/08 13:42:15;;;;;;;;;;;20.70;79.30;;;;;;5057515;28;19909;-58
2023/03/08 13:44:41;;;;;;;;;;;20.70;79.30;;;;;;5094347;28;19915;-58
2023/03/08 13:47:21;;;;;;;;;;;20.70;79.20;;;;;;5094125;28;19916;-58
2023/03/08 13:49:47;;;;;;;;;;;20.70;79.40;;;;;;5094045;28;19950;-57
2023/03/08 13:52:24;;;;;;;;;;;20.70;79.40;;;;;;5094275;28;19916;-58
2023/03/08 13:54:51;;;;;;;;;;;20.70;79.50;;;;;;5064409;28;19913;-57
2023/03/08 13:57:19;;;;;;;;;;;20.70;79.40;;;;;;5083288;28;19962;-58
2023/03/08 13:59:49;;;;;;;;;;;20.70;79.60;;;;;;5093700;28;20374;-58
2023/03/08 14:02:20;;;;;;;;;;;20.70;79.40;;;;;;5079786;28;20003;-60
2023/03/08 14:04:45;;;;;;;;;;;20.70;79.50;;;;;;5073836;28;20367;-58
2023/03/08 14:07:18;;;;;;;;;;;20.70;79.50;;;;;;5062800;28;20192;-59
2023/03/08 14:09:44;;;;;;;;;;;20.70;79.50;;;;;;5094378;28;19961;-58
2023/03/08 14:12:14;;;;;;;;;;;20.70;79.50;;;;;;5080292;28;19912;-59
2023/03/08 14:14:41;;;;;;;;;;;20.70;79.60;;;;;;5073764;28;20339;-60
2023/03/08 14:17:14;;;;;;;;;;;20.70;79.40;;;;;;5073637;28;20007;-58
2023/03/08 14:19:39;;;;;;;;;;;20.70;79.50;;;;;;5077015;28;19912;-59
2023/03/08 14:22:12;;;;;;;;;;;20.70;79.60;;;;;;5094004;28;20400;-56